createdAt,value
2023-03-25T00:01:26.117Z,98384.56
2023-03-25T00:03:58.451Z,98385.50
2023-03-25T00:06:31.425Z,98372.69
2023-03-25T00:09:04.230Z,98372.88
2023-03-25T00:11:35.965Z,98369.03
2023-03-25T00:14:08.273Z,98360.84
2023-03-25T00:16:43.421Z,98365.91
2023-03-25T00:19:18.376Z,98365.09
2023-03-25T00:21:50.541Z,98362.88
2023-03-25T00:24:22.313Z,98366.13
2023-03-25T00:26:54.350Z,98367.31
2023-03-25T00:29:26.261Z,98366.28
2023-03-25T00:31:57.974Z,98371.56
2023-03-25T00:34:29.638Z,98367.09
2023-03-25T00:37:04.558Z,98360.59
2023-03-25T00:39:38.017Z,98365.66
2023-03-25T00:42:11.338Z,98359.28
2023-03-25T00:44:43.504Z,98358.28
2023-03-25T00:47:18.762Z,98355.22
2023-03-25T00:49:51.695Z,98351.97
2023-03-25T00:52:23.441Z,98354.59
2023-03-25T00:54:55.259Z,98358.25
2023-03-25T00:57:26.986Z,98359.47
2023-03-25T00:59:58.710Z,98354.56
2023-03-25T01:02:31.191Z,98351.31
2023-03-25T01:05:04.133Z,98355.78
2023-03-25T01:07:37.591Z,98360.84
2023-03-25T01:10:11.701Z,98358.63
2023-03-25T01:12:43.421Z,98356.38
2023-03-25T01:15:15.640Z,98367.97
2023-03-25T01:17:47.384Z,98363.84
2023-03-25T01:20:19.106Z,98369.34
2023-03-25T01:22:51.175Z,98365.06
2023-03-25T01:25:22.949Z,98357.94
2023-03-25T01:27:54.670Z,98363.22
2023-03-25T01:30:26.329Z,98359.78
2023-03-25T01:32:58.237Z,98363.59
2023-03-25T01:35:29.927Z,98359.31
2023-03-25T01:38:01.741Z,98360.38
2023-03-25T01:40:34.414Z,98361.94
2023-03-25T01:43:13.401Z,98343.66
2023-03-25T01:45:48.062Z,98348.72
2023-03-25T01:48:28.532Z,98347.13
2023-03-25T01:51:06.889Z,98351.19
2023-03-25T01:53:39.520Z,98357.09
2023-03-25T01:56:16.025Z,98354.00
2023-03-25T01:58:48.314Z,98346.91
2023-03-25T02:01:21.873Z,98348.13
2023-03-25T02:04:02.990Z,98343.22
2023-03-25T02:06:42.450Z,98344.84
2023-03-25T02:09:17.822Z,98348.13
2023-03-25T02:11:49.636Z,98343.63
2023-03-25T02:14:25.869Z,98342.97
2023-03-25T02:17:19.813Z,98349.66
2023-03-25T02:20:11.205Z,98348.22
2023-03-25T02:23:11.630Z,98354.72
2023-03-25T02:26:09.433Z,98336.22
2023-03-25T02:28:48.142Z,98332.31
2023-03-25T02:31:33.217Z,98334.16
2023-03-25T02:34:39.275Z,98333.16
2023-03-25T02:37:22.852Z,98339.25
2023-03-25T02:40:10.999Z,98343.72
2023-03-25T02:43:05.991Z,98346.34
2023-03-25T02:45:51.059Z,98340.50
2023-03-25T02:48:34.079Z,98328.91
2023-03-25T02:51:12.832Z,98335.66
2023-03-25T02:53:48.283Z,98320.81
2023-03-25T02:56:22.865Z,98320.44
2023-03-25T02:58:57.472Z,98315.97
2023-03-25T03:01:29.239Z,98309.66
2023-03-25T03:04:02.212Z,98307.81
2023-03-25T03:06:41.801Z,98302.34
2023-03-25T03:09:25.814Z,98293.63
2023-03-25T03:12:36.119Z,98294.44
2023-03-25T03:15:16.384Z,98296.66
2023-03-25T03:18:06.276Z,98301.34
2023-03-25T03:21:07.133Z,98302.53
2023-03-25T03:24:01.760Z,98309.47
2023-03-25T03:26:53.824Z,98301.13
2023-03-25T03:29:35.613Z,98309.00
2023-03-25T03:32:21.953Z,98314.47
2023-03-25T03:34:58.057Z,98309.59
2023-03-25T03:37:41.315Z,98317.06
2023-03-25T03:40:17.894Z,98319.47
2023-03-25T03:43:01.161Z,98320.88
2023-03-25T03:45:49.901Z,98319.44
2023-03-25T03:48:38.169Z,98315.09
2023-03-25T03:51:18.668Z,98320.78
2023-03-25T03:54:05.468Z,98320.97
2023-03-25T03:56:47.933Z,98325.66
2023-03-25T03:59:38.031Z,98321.66
2023-03-25T04:02:24.146Z,98326.50
2023-03-25T04:05:00.617Z,98327.50
2023-03-25T04:07:54.829Z,98317.34
2023-03-25T04:10:42.523Z,98317.91
2023-03-25T04:13:17.389Z,98321.56
2023-03-25T04:15:49.830Z,98318.94
2023-03-25T04:18:23.454Z,98320.09
2023-03-25T04:20:56.041Z,98318.28
2023-03-25T04:23:31.909Z,98320.28
2023-03-25T04:26:03.909Z,98313.13
2023-03-25T04:28:41.864Z,98309.25
2023-03-25T04:31:15.754Z,98299.53
2023-03-25T04:33:48.837Z,98297.53
2023-03-25T04:36:20.932Z,98297.31
2023-03-25T04:38:53.200Z,98310.94
2023-03-25T04:41:25.743Z,98307.09
2023-03-25T04:43:58.383Z,98320.94
2023-03-25T04:46:30.113Z,98320.94
2023-03-25T04:49:14.066Z,98322.75
2023-03-25T04:51:45.937Z,98321.56
2023-03-25T04:54:21.680Z,98332.31
2023-03-25T04:56:53.464Z,98336.56
2023-03-25T04:59:25.107Z,98343.28
2023-03-25T05:01:56.902Z,98345.09
2023-03-25T05:04:29.023Z,98344.50
2023-03-25T05:07:00.803Z,98336.38
2023-03-25T05:09:32.502Z,98349.19
2023-03-25T05:12:04.364Z,98358.50
2023-03-25T05:14:36.042Z,98361.31
2023-03-25T05:17:07.681Z,98359.31
2023-03-25T05:19:43.712Z,98358.34
2023-03-25T05:22:15.399Z,98353.66
2023-03-25T05:24:47.458Z,98360.56
2023-03-25T05:27:20.253Z,98364.19
2023-03-25T05:29:52.087Z,98357.34
2023-03-25T05:32:26.008Z,98360.06
2023-03-25T05:34:57.701Z,98362.78
2023-03-25T05:37:29.792Z,98361.78
2023-03-25T05:40:02.298Z,98360.13
2023-03-25T05:42:34.935Z,98354.13
2023-03-25T05:45:10.383Z,98353.19
2023-03-25T05:47:46.061Z,98357.22
2023-03-25T05:50:18.181Z,98355.75
2023-03-25T05:52:51.793Z,98364.13
2023-03-25T05:55:23.814Z,98359.84
2023-03-25T05:57:56.962Z,98370.34
2023-03-25T06:00:30.473Z,98373.09
2023-03-25T06:03:02.385Z,98366.66
2023-03-25T06:05:41.495Z,98374.44
2023-03-25T06:08:13.919Z,98379.13
2023-03-25T06:10:45.960Z,98376.28
2023-03-25T06:13:17.709Z,98374.84
2023-03-25T06:15:49.539Z,98379.91
2023-03-25T06:18:24.910Z,98371.94
2023-03-25T06:20:57.765Z,98383.34
2023-03-25T06:23:29.498Z,98377.28
2023-03-25T06:26:01.564Z,98387.25
2023-03-25T06:28:33.678Z,98384.84
2023-03-25T06:31:08.485Z,98384.84
2023-03-25T06:33:42.770Z,98379.66
2023-03-25T06:36:18.730Z,98386.59
2023-03-25T06:38:51.006Z,98395.53
2023-03-25T06:41:25.631Z,98389.81
2023-03-25T06:44:08.440Z,98382.69
2023-03-25T06:46:52.424Z,98376.19
2023-03-25T06:49:45.143Z,98382.69
2023-03-25T06:52:19.462Z,98389.09
2023-03-25T06:54:51.259Z,98378.38
2023-03-25T06:57:22.940Z,98389.09
2023-03-25T06:59:54.689Z,98385.31
2023-03-25T07:02:26.462Z,98386.81
2023-03-25T07:04:58.260Z,98383.75
2023-03-25T07:07:29.964Z,98378.44
2023-03-25T07:10:01.755Z,98390.03
2023-03-25T07:12:34.946Z,98387.44
2023-03-25T07:15:07.873Z,98390.00
2023-03-25T07:17:43.053Z,98384.22
2023-03-25T07:20:17.018Z,98400.06
2023-03-25T07:22:48.930Z,98398.38
2023-03-25T07:25:20.689Z,98392.00
2023-03-25T07:27:52.401Z,98395.31
2023-03-25T07:30:25.594Z,98396.25
2023-03-25T07:33:00.392Z,98387.69
2023-03-25T07:35:32.210Z,98385.34
2023-03-25T07:38:05.121Z,98381.75
2023-03-25T07:40:36.924Z,98389.53
2023-03-25T07:43:08.683Z,98388.28
2023-03-25T07:45:58.794Z,98386.50
2023-03-25T07:48:34.462Z,98397.94
2023-03-25T07:51:09.032Z,98403.84
2023-03-25T07:53:44.595Z,98424.16
2023-03-25T07:56:16.419Z,98421.13
2023-03-25T07:58:49.603Z,98427.41
2023-03-25T08:01:23.901Z,98421.63
2023-03-25T08:03:55.607Z,98425.75
2023-03-25T08:06:27.314Z,98430.66
2023-03-25T08:08:59.030Z,98433.31
2023-03-25T08:11:32.568Z,98421.50
2023-03-25T08:14:05.540Z,98435.34
2023-03-25T08:16:37.337Z,98441.63
2023-03-25T08:19:09.110Z,98441.16
2023-03-25T08:21:41.307Z,98439.72
2023-03-25T08:24:13.738Z,98433.72
2023-03-25T08:26:45.440Z,98423.38
2023-03-25T08:29:17.943Z,98426.69
2023-03-25T08:31:52.524Z,98418.84
2023-03-25T08:34:29.086Z,98412.53
2023-03-25T08:37:04.411Z,98411.75
2023-03-25T08:39:40.244Z,98415.06
2023-03-25T08:42:15.692Z,98407.31
2023-03-25T08:44:47.711Z,98410.56
2023-03-25T08:47:20.677Z,98414.53
2023-03-25T08:49:52.374Z,98415.56
2023-03-25T08:52:24.132Z,98427.38
2023-03-25T08:54:55.914Z,98422.00
2023-03-25T08:57:30.623Z,98455.91
2023-03-25T09:00:02.722Z,98441.63
2023-03-25T09:02:37.398Z,98449.84
2023-03-25T09:05:12.932Z,98447.41
2023-03-25T09:07:47.056Z,98449.81
2023-03-25T09:10:19.776Z,98446.34
2023-03-25T09:12:51.876Z,98439.84
2023-03-25T09:15:23.730Z,98428.22
2023-03-25T09:17:55.568Z,98432.91
2023-03-25T09:20:27.447Z,98425.75
2023-03-25T09:22:59.443Z,98425.13
2023-03-25T09:25:31.074Z,98440.03
2023-03-25T09:28:02.812Z,98425.56
2023-03-25T09:30:34.853Z,98432.22
2023-03-25T09:33:07.282Z,98433.81
2023-03-25T09:35:41.374Z,98451.34
2023-03-25T09:38:13.569Z,98445.97
2023-03-25T09:40:46.012Z,98426.28
2023-03-25T09:43:26.973Z,98451.19
2023-03-25T09:45:59.984Z,98435.81
2023-03-25T09:48:42.072Z,98434.13
2023-03-25T09:51:36.655Z,98441.09
2023-03-25T09:54:29.499Z,98433.53
2023-03-25T09:57:07.830Z,98428.81
2023-03-25T09:59:48.951Z,98413.25
2023-03-25T10:02:41.580Z,98431.94
2023-03-25T10:05:31.207Z,98411.72
2023-03-25T10:08:17.926Z,98413.88
2023-03-25T10:11:07.933Z,98409.09
2023-03-25T10:14:29.188Z,98416.44
2023-03-25T10:17:08.787Z,98413.00
2023-03-25T10:19:54.464Z,98425.66
2023-03-25T10:22:50.527Z,98425.22
2023-03-25T10:25:26.782Z,98428.94
2023-03-25T10:28:01.136Z,98436.25
2023-03-25T10:30:38.714Z,98422.38
2023-03-25T10:33:25.034Z,98416.28
2023-03-25T10:35:59.980Z,98418.00
2023-03-25T10:38:36.433Z,98413.22
2023-03-25T10:41:23.256Z,98410.16
2023-03-25T10:43:54.965Z,98412.00
2023-03-25T10:46:55.531Z,98406.81
2023-03-25T10:49:30.552Z,98412.47
2023-03-25T10:52:02.496Z,98410.59
2023-03-25T10:54:39.536Z,98428.72
2023-03-25T10:57:20.339Z,98411.59
2023-03-25T11:00:19.635Z,98395.44
2023-03-25T11:02:51.671Z,98406.78
2023-03-25T11:05:28.291Z,98413.47
2023-03-25T11:08:18.084Z,98386.22
2023-03-25T11:11:00.402Z,98387.66
2023-03-25T11:13:32.145Z,98394.31
2023-03-25T11:16:04.391Z,98386.84
2023-03-25T11:18:40.781Z,98370.94
2023-03-25T11:21:14.338Z,98375.91
2023-03-25T11:23:51.699Z,98359.97
2023-03-25T11:26:37.324Z,98359.38
2023-03-25T11:29:18.952Z,98362.19
2023-03-25T11:32:14.804Z,98347.84
2023-03-25T11:34:52.005Z,98353.66
2023-03-25T11:37:27.942Z,98348.81
2023-03-25T11:40:06.611Z,98344.16
2023-03-25T11:42:42.930Z,98340.69
2023-03-25T11:45:40.892Z,98337.16
2023-03-25T11:48:18.113Z,98329.59
2023-03-25T11:50:59.852Z,98327.63
2023-03-25T11:53:33.466Z,98318.50
2023-03-25T11:56:10.910Z,98326.59
2023-03-25T11:58:43.316Z,98323.81
2023-03-25T12:01:36.923Z,98311.78
2023-03-25T12:04:13.221Z,98332.66
2023-03-25T12:07:00.055Z,98322.09
2023-03-25T12:09:32.029Z,98335.03
2023-03-25T12:12:42.491Z,98327.78
2023-03-25T12:15:28.540Z,98328.06
2023-03-25T12:18:35.822Z,98326.13
2023-03-25T12:21:16.864Z,98318.88
2023-03-25T12:24:00.560Z,98320.53
2023-03-25T12:27:03.077Z,98322.19
2023-03-25T12:29:45.859Z,98320.31
2023-03-25T12:32:30.501Z,98312.56
2023-03-25T12:35:41.535Z,98313.09
2023-03-25T12:38:32.766Z,98308.94
2023-03-25T12:41:10.389Z,98302.16
2023-03-25T12:43:51.007Z,98304.81
2023-03-25T12:46:38.676Z,98290.56
2023-03-25T12:49:31.648Z,98282.41
2023-03-25T12:52:21.232Z,98279.44
2023-03-25T12:55:03.630Z,98281.19
2023-03-25T12:57:56.602Z,98275.59
2023-03-25T13:00:30.959Z,98279.91
2023-03-25T13:03:36.619Z,98279.59
2023-03-25T13:06:26.397Z,98280.06
2023-03-25T13:09:24.126Z,98277.63
2023-03-25T13:12:03.776Z,98276.81
2023-03-25T13:14:41.568Z,98267.25
2023-03-25T13:17:28.569Z,98262.88
2023-03-25T13:20:06.443Z,98254.47
2023-03-25T13:22:46.880Z,98245.25
2023-03-25T13:25:26.965Z,98245.13
2023-03-25T13:28:03.181Z,98247.00
2023-03-25T13:30:38.924Z,98240.72
2023-03-25T13:33:25.143Z,98238.88
2023-03-25T13:36:06.003Z,98237.97
2023-03-25T13:38:50.575Z,98233.78
2023-03-25T13:41:37.432Z,98235.28
2023-03-25T13:44:26.485Z,98237.00
2023-03-25T13:47:04.823Z,98234.59
2023-03-25T13:49:58.084Z,98235.06
2023-03-25T13:52:36.686Z,98231.41
2023-03-25T13:55:26.224Z,98245.91
2023-03-25T13:58:18.203Z,98256.69
2023-03-25T14:00:53.060Z,98247.78
2023-03-25T14:03:50.498Z,98246.97
2023-03-25T14:06:35.125Z,98246.00
2023-03-25T14:09:34.672Z,98251.03
2023-03-25T14:12:21.485Z,98229.63
2023-03-25T14:15:05.066Z,98234.06
2023-03-25T14:17:37.509Z,98234.34
2023-03-25T14:20:18.973Z,98235.22
2023-03-25T14:22:56.929Z,98238.91
2023-03-25T14:25:37.319Z,98247.63
2023-03-25T14:28:16.456Z,98255.81
2023-03-25T14:31:17.107Z,98247.56
2023-03-25T14:34:02.129Z,98242.19
2023-03-25T14:36:39.836Z,98237.63
2023-03-25T14:39:32.073Z,98243.34
2023-03-25T14:42:06.717Z,98247.81
2023-03-25T14:44:41.327Z,98267.78
2023-03-25T14:47:17.072Z,98274.63
2023-03-25T14:50:13.624Z,98304.31
2023-03-25T14:52:48.948Z,98302.31
2023-03-25T14:55:32.674Z,98318.66
2023-03-25T14:58:24.659Z,98321.97
2023-03-25T15:01:05.119Z,98325.47
2023-03-25T15:03:44.377Z,98324.47
2023-03-25T15:06:28.353Z,98329.16
2023-03-25T15:09:09.759Z,98321.03
2023-03-25T15:11:52.726Z,98327.38
2023-03-25T15:14:28.771Z,98335.34
2023-03-25T15:17:09.882Z,98345.09
2023-03-25T15:20:23.195Z,98333.50
2023-03-25T15:23:22.230Z,98322.69
2023-03-25T15:25:57.279Z,98314.38
2023-03-25T15:28:34.703Z,98328.59
2023-03-25T15:31:41.097Z,98326.16
2023-03-25T15:34:28.197Z,98340.59
2023-03-25T15:37:03.229Z,98334.50
2023-03-25T15:39:54.428Z,98322.09
2023-03-25T15:42:32.395Z,98331.41
2023-03-25T15:45:52.142Z,98336.50
2023-03-25T15:48:45.780Z,98344.00
2023-03-25T15:51:38.641Z,98334.06
2023-03-25T15:54:26.594Z,98340.78
2023-03-25T15:57:28.824Z,98331.41
2023-03-25T16:00:28.485Z,98330.59
2023-03-25T16:03:01.871Z,98335.31
2023-03-25T16:05:42.771Z,98332.28
2023-03-25T16:08:22.792Z,98333.88
2023-03-25T16:10:54.495Z,98334.91
2023-03-25T16:13:26.272Z,98342.84
2023-03-25T16:15:58.697Z,98332.22
2023-03-25T16:18:30.460Z,98348.09
2023-03-25T16:21:03.463Z,98338.94
2023-03-25T16:23:37.275Z,98338.69
2023-03-25T16:26:17.888Z,98335.22
2023-03-25T16:28:49.560Z,98344.00
2023-03-25T16:31:34.950Z,98327.72
2023-03-25T16:34:16.247Z,98343.97
2023-03-25T16:36:50.841Z,98353.34
2023-03-25T16:39:24.827Z,98357.59
2023-03-25T16:42:02.726Z,98373.25
2023-03-25T16:44:34.875Z,98376.72
2023-03-25T16:47:06.812Z,98388.13
2023-03-25T16:49:39.374Z,98385.84
2023-03-25T16:52:15.465Z,98385.56
2023-03-25T16:55:26.563Z,98374.22
2023-03-25T16:58:02.422Z,98388.91
2023-03-25T17:00:43.146Z,98391.09
2023-03-25T17:03:21.322Z,98399.00
2023-03-25T17:06:08.925Z,98398.53
2023-03-25T17:08:40.827Z,98390.53
2023-03-25T17:11:13.699Z,98401.91
2023-03-25T17:13:51.952Z,98393.53
2023-03-25T17:16:28.275Z,98394.94
2023-03-25T17:19:01.845Z,98400.44
2023-03-25T17:21:34.838Z,98399.41
2023-03-25T17:24:22.596Z,98409.97
2023-03-25T17:27:08.049Z,98387.34
2023-03-25T17:29:51.118Z,98395.88
2023-03-25T17:32:23.658Z,98397.88
2023-03-25T17:35:06.512Z,98402.50
2023-03-25T17:37:38.386Z,98399.81
2023-03-25T17:40:21.412Z,98410.16
2023-03-25T17:42:53.686Z,98411.56
2023-03-25T17:45:26.181Z,98402.97
2023-03-25T17:47:57.936Z,98403.13
2023-03-25T17:50:33.074Z,98407.72
2023-03-25T17:53:04.754Z,98408.09
2023-03-25T17:55:37.243Z,98410.88
2023-03-25T17:58:09.282Z,98407.75
2023-03-25T18:00:42.955Z,98418.50
2023-03-25T18:03:23.860Z,98434.28
2023-03-25T18:05:55.619Z,98428.13
2023-03-25T18:08:28.150Z,98428.75
2023-03-25T18:11:00.023Z,98430.47
2023-03-25T18:13:31.741Z,98438.31
2023-03-25T18:16:03.635Z,98440.31
2023-03-25T18:18:35.506Z,98433.19
2023-03-25T18:21:11.676Z,98432.56
2023-03-25T18:23:48.000Z,98429.44
2023-03-25T18:26:22.383Z,98436.56
2023-03-25T18:28:54.065Z,98434.13
2023-03-25T18:31:27.352Z,98432.09
2023-03-25T18:33:59.088Z,98433.66
2023-03-25T18:36:31.452Z,98429.78
2023-03-25T18:39:04.073Z,98428.34
2023-03-25T18:41:35.775Z,98426.69
2023-03-25T18:44:07.946Z,98423.25
2023-03-25T18:46:41.516Z,98426.44
2023-03-25T18:49:18.603Z,98427.78
2023-03-25T18:51:50.388Z,98437.53
2023-03-25T18:54:22.061Z,98429.63
2023-03-25T18:56:53.781Z,98435.28
2023-03-25T18:59:25.677Z,98421.63
2023-03-25T19:01:58.125Z,98434.19
2023-03-25T19:04:31.904Z,98430.75
2023-03-25T19:07:04.736Z,98433.72
2023-03-25T19:09:36.436Z,98433.13
2023-03-25T19:12:08.162Z,98428.19
2023-03-25T19:14:39.850Z,98441.75
2023-03-25T19:17:12.950Z,98444.41
2023-03-25T19:19:44.711Z,98447.94
2023-03-25T19:22:16.399Z,98449.94
2023-03-25T19:24:48.057Z,98451.56
2023-03-25T19:27:19.858Z,98452.56
2023-03-25T19:29:52.239Z,98455.22
2023-03-25T19:32:24.069Z,98462.25
2023-03-25T19:34:56.622Z,98466.88
2023-03-25T19:37:35.398Z,98457.50
2023-03-25T19:40:09.391Z,98458.31
2023-03-25T19:42:41.176Z,98453.41
2023-03-25T19:45:13.647Z,98459.50
2023-03-25T19:47:45.888Z,98453.16
2023-03-25T19:50:23.554Z,98456.97
2023-03-25T19:52:56.434Z,98451.88
2023-03-25T19:55:31.031Z,98451.69
2023-03-25T19:58:03.288Z,98451.03
2023-03-25T20:00:35.210Z,98450.53
2023-03-25T20:03:07.767Z,98446.50
2023-03-25T20:05:40.597Z,98446.34
2023-03-25T20:08:12.556Z,98443.22
2023-03-25T20:10:45.365Z,98435.53
2023-03-25T20:13:17.164Z,98440.59
2023-03-25T20:15:50.625Z,98440.34
2023-03-25T20:18:22.671Z,98433.97
2023-03-25T20:20:54.374Z,98441.06
2023-03-25T20:23:26.152Z,98442.88
2023-03-25T20:25:57.834Z,98438.59
2023-03-25T20:28:31.423Z,98444.06
2023-03-25T20:31:13.498Z,98439.88
2023-03-25T20:33:46.775Z,98439.50
2023-03-25T20:36:20.221Z,98442.16
2023-03-25T20:38:57.743Z,98442.78
2023-03-25T20:41:29.834Z,98439.59
2023-03-25T20:44:01.569Z,98435.59
2023-03-25T20:46:33.326Z,98435.53
2023-03-25T20:49:08.909Z,98439.97
2023-03-25T20:51:41.722Z,98436.78
2023-03-25T20:54:15.129Z,98436.16
2023-03-25T20:56:46.933Z,98430.88
2023-03-25T20:59:19.888Z,98425.00
2023-03-25T21:01:54.365Z,98419.50
2023-03-25T21:04:26.585Z,98425.69
2023-03-25T21:06:58.578Z,98431.34
2023-03-25T21:09:30.660Z,98427.06
2023-03-25T21:12:02.491Z,98427.81
2023-03-25T21:14:36.264Z,98423.91
2023-03-25T21:17:08.051Z,98418.97
2023-03-25T21:19:40.157Z,98421.44
2023-03-25T21:22:12.314Z,98417.44
2023-03-25T21:24:44.069Z,98434.06
2023-03-25T21:27:17.743Z,98414.63
2023-03-25T21:29:52.488Z,98421.34
2023-03-25T21:32:24.329Z,98415.06
2023-03-25T21:34:56.013Z,98408.16
2023-03-25T21:37:29.068Z,98399.00
2023-03-25T21:40:00.916Z,98402.53
2023-03-25T21:42:32.559Z,98410.09
2023-03-25T21:45:05.299Z,98394.09
2023-03-25T21:47:37.235Z,98401.53
2023-03-25T21:50:11.946Z,98392.47
2023-03-25T21:52:46.574Z,98398.34
2023-03-25T21:55:19.543Z,98393.91
2023-03-25T21:57:51.443Z,98395.53
2023-03-25T22:00:25.010Z,98390.75
2023-03-25T22:02:58.466Z,98392.34
2023-03-25T22:05:31.051Z,98392.16
2023-03-25T22:08:02.739Z,98399.91
2023-03-25T22:10:34.426Z,98394.25
2023-03-25T22:13:06.241Z,98392.06
2023-03-25T22:15:37.945Z,98392.34
2023-03-25T22:18:09.686Z,98387.41
2023-03-25T22:20:41.622Z,98389.25
2023-03-25T22:23:13.329Z,98378.34
2023-03-25T22:25:45.929Z,98376.88
2023-03-25T22:28:19.996Z,98370.25
2023-03-25T22:30:51.856Z,98371.91
2023-03-25T22:33:23.606Z,98373.16
2023-03-25T22:36:02.810Z,98375.78
2023-03-25T22:38:34.540Z,98376.22
2023-03-25T22:41:07.996Z,98377.78
2023-03-25T22:43:40.382Z,98375.97
2023-03-25T22:46:12.507Z,98375.78
2023-03-25T22:48:44.657Z,98378.25
2023-03-25T22:51:18.777Z,98370.50
2023-03-25T22:53:51.017Z,98368.88
2023-03-25T22:56:23.688Z,98367.06
2023-03-25T22:58:55.378Z,98365.97
2023-03-25T23:01:28.584Z,98360.72
2023-03-25T23:04:00.557Z,98351.56
2023-03-25T23:06:33.399Z,98354.94
2023-03-25T23:09:08.366Z,98353.91
2023-03-25T23:11:40.396Z,98350.66
2023-03-25T23:14:13.258Z,98358.56
2023-03-25T23:16:45.085Z,98356.66
2023-03-25T23:19:16.742Z,98356.00
2023-03-25T23:21:49.734Z,98360.38
2023-03-25T23:24:21.440Z,98362.03
2023-03-25T23:26:53.535Z,98357.75
2023-03-25T23:29:25.212Z,98354.69
2023-03-25T23:31:56.965Z,98343.06
2023-03-25T23:34:28.644Z,98348.97
2023-03-25T23:37:01.713Z,98359.84
2023-03-25T23:39:34.957Z,98361.22
2023-03-25T23:42:07.505Z,98362.06
2023-03-25T23:44:39.200Z,98364.22
2023-03-25T23:47:11.190Z,98361.59
2023-03-25T23:49:44.204Z,98364.84
2023-03-25T23:52:15.971Z,98364.47
2023-03-25T23:54:48.643Z,98357.22
2023-03-25T23:57:20.576Z,98362.75
2023-03-25T23:59:52.231Z,98368.50
